sensor_id;sensor_type;location;lat;lon;timestamp;P1;durP1;ratioP1;P2;durP2;ratioP2
23782;SDS011;12071;50.850;4.446;2022-10-16T00:00:44;4.22;;;1.10;;
23782;SDS011;12071;50.850;4.446;2022-10-16T00:03:10;2.13;;;0.70;;
23782;SDS011;12071;50.850;4.446;2022-10-16T00:05:40;3.30;;;0.70;;
23782;SDS011;12071;50.850;4.446;2022-10-16T00:08:08;1.10;;;0.60;;
23782;SDS011;12071;50.850;4.446;2022-10-16T00:10:38;3.25;;;0.85;;
23782;SDS011;12071;50.850;4.446;2022-10-16T00:13:04;2.95;;;0.63;;
23782;SDS011;12071;50.850;4.446;2022-10-16T00:15:32;2.20;;;0.85;;
23782;SDS011;12071;50.850;4.446;2022-10-16T00:18:01;1.83;;;0.70;;
23782;SDS011;12071;50.850;4.446;2022-10-16T00:20:27;2.08;;;0.63;;
23782;SDS011;12071;50.850;4.446;2022-10-16T00:22:52;1.08;;;0.60;;
23782;SDS011;12071;50.850;4.446;2022-10-16T00:25:18;1.80;;;0.70;;
23782;SDS011;12071;50.850;4.446;2022-10-16T00:27:44;2.67;;;0.60;;
23782;SDS011;12071;50.850;4.446;2022-10-16T00:30:09;3.00;;;0.90;;
23782;SDS011;12071;50.850;4.446;2022-10-16T00:32:35;2.65;;;0.80;;
23782;SDS011;12071;50.850;4.446;2022-10-16T00:35:01;3.00;;;1.10;;
23782;SDS011;12071;50.850;4.446;2022-10-16T00:37:28;1.38;;;0.70;;
23782;SDS011;12071;50.850;4.446;2022-10-16T00:39:54;2.13;;;0.82;;
23782;SDS011;12071;50.850;4.446;2022-10-16T00:42:19;4.53;;;0.85;;
23782;SDS011;12071;50.850;4.446;2022-10-16T00:49:53;4.00;;;0.80;;
23782;SDS011;12071;50.850;4.446;2022-10-16T00:52:24;1.77;;;0.60;;
23782;SDS011;12071;50.850;4.446;2022-10-16T00:54:50;1.48;;;0.77;;
23782;SDS011;12071;50.850;4.446;2022-10-16T00:57:18;2.15;;;0.80;;
23782;SDS011;12071;50.850;4.446;2022-10-16T00:59:44;1.48;;;0.70;;
23782;SDS011;12071;50.850;4.446;2022-10-16T01:02:11;2.90;;;0.93;;
23782;SDS011;12071;50.850;4.446;2022-10-16T01:04:43;1.85;;;0.88;;
23782;SDS011;12071;50.850;4.446;2022-10-16T01:07:16;2.15;;;0.80;;
23782;SDS011;12071;50.850;4.446;2022-10-16T01:15:32;4.28;;;0.85;;
23782;SDS011;12071;50.850;4.446;2022-10-16T01:21:08;2.22;;;0.80;;
23782;SDS011;12071;50.850;4.446;2022-10-16T01:32:16;1.40;;;0.70;;
23782;SDS011;12071;50.850;4.446;2022-10-16T01:34:54;1.55;;;0.75;;
23782;SDS011;12071;50.850;4.446;2022-10-16T01:37:39;1.52;;;0.70;;
23782;SDS011;12071;50.850;4.446;2022-10-16T01:40:11;2.08;;;0.85;;
23782;SDS011;12071;50.850;4.446;2022-10-16T01:42:40;0.95;;;0.70;;
23782;SDS011;12071;50.850;4.446;2022-10-16T01:45:08;2.58;;;1.20;;
23782;SDS011;12071;50.850;4.446;2022-10-16T01:47:38;1.40;;;0.80;;
23782;SDS011;12071;50.850;4.446;2022-10-16T01:50:04;2.42;;;1.25;;
23782;SDS011;12071;50.850;4.446;2022-10-16T01:52:32;2.00;;;0.82;;
23782;SDS011;12071;50.850;4.446;2022-10-16T01:55:03;1.73;;;0.85;;
23782;SDS011;12071;50.850;4.446;2022-10-16T01:57:31;2.35;;;0.90;;
23782;SDS011;12071;50.850;4.446;2022-10-16T02:00:01;2.17;;;1.00;;
23782;SDS011;12071;50.850;4.446;2022-10-16T02:02:31;1.95;;;0.80;;
23782;SDS011;12071;50.850;4.446;2022-10-16T02:05:00;1.50;;;0.90;;
23782;SDS011;12071;50.850;4.446;2022-10-16T02:09:55;2.88;;;1.00;;
23782;SDS011;12071;50.850;4.446;2022-10-16T02:12:26;3.03;;;1.10;;
23782;SDS011;12071;50.850;4.446;2022-10-16T02:14:57;2.65;;;0.90;;
23782;SDS011;12071;50.850;4.446;2022-10-16T02:17:22;2.08;;;0.90;;
23782;SDS011;12071;50.850;4.446;2022-10-16T02:19:49;2.25;;;1.13;;
23782;SDS011;12071;50.850;4.446;2022-10-16T02:22:22;4.35;;;1.02;;
23782;SDS011;12071;50.850;4.446;2022-10-16T02:27:41;2.20;;;0.88;;
23782;SDS011;12071;50.850;4.446;2022-10-16T02:32:46;3.10;;;1.00;;
23782;SDS011;12071;50.850;4.446;2022-10-16T02:35:15;2.75;;;0.95;;
23782;SDS011;12071;50.850;4.446;2022-10-16T02:37:42;2.58;;;0.98;;
23782;SDS011;12071;50.850;4.446;2022-10-16T02:40:10;4.18;;;1.42;;
23782;SDS011;12071;50.850;4.446;2022-10-16T02:42:37;4.97;;;1.15;;
23782;SDS011;12071;50.850;4.446;2022-10-16T02:45:05;2.95;;;1.20;;
23782;SDS011;12071;50.850;4.446;2022-10-16T02:47:32;2.55;;;1.40;;
23782;SDS011;12071;50.850;4.446;2022-10-16T02:49:58;4.35;;;1.42;;
23782;SDS011;12071;50.850;4.446;2022-10-16T02:52:23;4.82;;;1.40;;
23782;SDS011;12071;50.850;4.446;2022-10-16T02:54:49;3.67;;;1.40;;
23782;SDS011;12071;50.850;4.446;2022-10-16T02:57:15;2.10;;;1.23;;
23782;SDS011;12071;50.850;4.446;2022-10-16T02:59:40;4.32;;;1.13;;
23782;SDS011;12071;50.850;4.446;2022-10-16T03:02:06;3.42;;;1.20;;
23782;SDS011;12071;50.850;4.446;2022-10-16T03:04:32;3.35;;;1.27;;
23782;SDS011;12071;50.850;4.446;2022-10-16T03:06:57;4.13;;;1.17;;
23782;SDS011;12071;50.850;4.446;2022-10-16T03:09:23;3.45;;;1.40;;
23782;SDS011;12071;50.850;4.446;2022-10-16T03:11:49;3.05;;;1.30;;
23782;SDS011;12071;50.850;4.446;2022-10-16T03:14:14;3.05;;;1.60;;
23782;SDS011;12071;50.850;4.446;2022-10-16T03:16:40;3.85;;;1.45;;
23782;SDS011;12071;50.850;4.446;2022-10-16T03:19:06;5.25;;;1.65;;
23782;SDS011;12071;50.850;4.446;2022-10-16T03:21:32;7.10;;;1.50;;
23782;SDS011;12071;50.850;4.446;2022-10-16T03:23:57;4.55;;;1.30;;
23782;SDS011;12071;50.850;4.446;2022-10-16T03:26:23;3.80;;;1.67;;
23782;SDS011;12071;50.850;4.446;2022-10-16T03:28:49;3.85;;;1.90;;
23782;SDS011;12071;50.850;4.446;2022-10-16T03:31:14;2.35;;;1.65;;
23782;SDS011;12071;50.850;4.446;2022-10-16T03:33:41;2.60;;;1.52;;
23782;SDS011;12071;50.850;4.446;2022-10-16T03:36:07;3.40;;;1.35;;
23782;SDS011;12071;50.850;4.446;2022-10-16T03:38:32;4.65;;;1.60;;
23782;SDS011;12071;50.850;4.446;2022-10-16T03:40:58;3.80;;;1.42;;
23782;SDS011;12071;50.850;4.446;2022-10-16T03:43:24;4.57;;;1.50;;
23782;SDS011;12071;50.850;4.446;2022-10-16T03:45:50;1.92;;;1.20;;
23782;SDS011;12071;50.850;4.446;2022-10-16T03:48:16;3.97;;;1.20;;
23782;SDS011;12071;50.850;4.446;2022-10-16T03:50:42;4.10;;;1.50;;
23782;SDS011;12071;50.850;4.446;2022-10-16T03:53:08;3.60;;;1.40;;
23782;SDS011;12071;50.850;4.446;2022-10-16T03:55:35;2.25;;;1.48;;
23782;SDS011;12071;50.850;4.446;2022-10-16T03:58:00;4.95;;;1.67;;
23782;SDS011;12071;50.850;4.446;2022-10-16T04:00:26;2.83;;;1.40;;
23782;SDS011;12071;50.850;4.446;2022-10-16T04:02:52;4.18;;;1.60;;
23782;SDS011;12071;50.850;4.446;2022-10-16T04:05:18;3.35;;;1.55;;
23782;SDS011;12071;50.850;4.446;2022-10-16T04:07:43;1.70;;;1.38;;
23782;SDS011;12071;50.850;4.446;2022-10-16T04:10:09;4.38;;;1.67;;
23782;SDS011;12071;50.850;4.446;2022-10-16T04:12:35;3.33;;;1.35;;
23782;SDS011;12071;50.850;4.446;2022-10-16T04:15:02;2.58;;;1.30;;
23782;SDS011;12071;50.850;4.446;2022-10-16T04:17:27;2.53;;;1.40;;
23782;SDS011;12071;50.850;4.446;2022-10-16T04:19:53;3.92;;;1.83;;
23782;SDS011;12071;50.850;4.446;2022-10-16T04:22:18;5.95;;;1.58;;
23782;SDS011;12071;50.850;4.446;2022-10-16T04:24:44;3.88;;;1.60;;
23782;SDS011;12071;50.850;4.446;2022-10-16T04:27:10;3.80;;;1.60;;
23782;SDS011;12071;50.850;4.446;2022-10-16T04:29:35;4.07;;;1.50;;
23782;SDS011;12071;50.850;4.446;2022-10-16T04:32:01;3.92;;;1.60;;
23782;SDS011;12071;50.850;4.446;2022-10-16T04:34:26;5.85;;;1.85;;
23782;SDS011;12071;50.850;4.446;2022-10-16T04:36:52;2.38;;;1.48;;
23782;SDS011;12071;50.850;4.446;2022-10-16T04:39:17;3.70;;;1.80;;
23782;SDS011;12071;50.850;4.446;2022-10-16T04:41:43;6.72;;;1.88;;
23782;SDS011;12071;50.850;4.446;2022-10-16T04:44:09;4.95;;;1.50;;
23782;SDS011;12071;50.850;4.446;2022-10-16T04:46:34;3.45;;;1.48;;
23782;SDS011;12071;50.850;4.446;2022-10-16T04:49:00;6.45;;;1.95;;
23782;SDS011;12071;50.850;4.446;2022-10-16T04:51:26;3.28;;;1.42;;
23782;SDS011;12071;50.850;4.446;2022-10-16T04:53:52;5.80;;;2.00;;
23782;SDS011;12071;50.850;4.446;2022-10-16T04:56:19;3.97;;;1.42;;
23782;SDS011;12071;50.850;4.446;2022-10-16T04:58:45;7.85;;;1.73;;
23782;SDS011;12071;50.850;4.446;2022-10-16T05:01:11;4.05;;;1.55;;
23782;SDS011;12071;50.850;4.446;2022-10-16T05:03:36;2.80;;;1.45;;
23782;SDS011;12071;50.850;4.446;2022-10-16T05:06:04;3.05;;;1.50;;
23782;SDS011;12071;50.850;4.446;2022-10-16T05:08:32;2.77;;;1.57;;
23782;SDS011;12071;50.850;4.446;2022-10-16T05:10:58;3.90;;;1.60;;
23782;SDS011;12071;50.850;4.446;2022-10-16T05:13:25;3.63;;;1.52;;
23782;SDS011;12071;50.850;4.446;2022-10-16T05:15:50;6.70;;;1.60;;
23782;SDS011;12071;50.850;4.446;2022-10-16T05:18:16;10.23;;;2.05;;
23782;SDS011;12071;50.850;4.446;2022-10-16T05:20:42;6.35;;;2.28;;
23782;SDS011;12071;50.850;4.446;2022-10-16T05:23:08;5.00;;;1.80;;
23782;SDS011;12071;50.850;4.446;2022-10-16T05:25:35;4.45;;;1.80;;
23782;SDS011;12071;50.850;4.446;2022-10-16T05:28:01;4.03;;;1.67;;
23782;SDS011;12071;50.850;4.446;2022-10-16T05:30:26;3.85;;;1.88;;
23782;SDS011;12071;50.850;4.446;2022-10-16T05:32:52;8.85;;;2.35;;
23782;SDS011;12071;50.850;4.446;2022-10-16T05:35:18;5.20;;;2.00;;
23782;SDS011;12071;50.850;4.446;2022-10-16T05:37:44;2.88;;;1.60;;
23782;SDS011;12071;50.850;4.446;2022-10-16T05:40:11;5.78;;;2.55;;
23782;SDS011;12071;50.850;4.446;2022-10-16T05:42:38;2.38;;;1.83;;
23782;SDS011;12071;50.850;4.446;2022-10-16T05:45:04;9.15;;;2.20;;
23782;SDS011;12071;50.850;4.446;2022-10-16T05:47:37;2.92;;;1.85;;
23782;SDS011;12071;50.850;4.446;2022-10-16T05:50:03;7.07;;;2.00;;
23782;SDS011;12071;50.850;4.446;2022-10-16T05:52:29;5.80;;;2.05;;
23782;SDS011;12071;50.850;4.446;2022-10-16T05:54:54;5.53;;;1.98;;
23782;SDS011;12071;50.850;4.446;2022-10-16T05:57:20;4.40;;;2.05;;
23782;SDS011;12071;50.850;4.446;2022-10-16T05:59:45;7.80;;;2.40;;
23782;SDS011;12071;50.850;4.446;2022-10-16T06:02:14;6.30;;;2.13;;
23782;SDS011;12071;50.850;4.446;2022-10-16T06:04:39;6.13;;;2.38;;
23782;SDS011;12071;50.850;4.446;2022-10-16T06:07:05;6.25;;;2.10;;
23782;SDS011;12071;50.850;4.446;2022-10-16T06:09:31;5.38;;;2.10;;
23782;SDS011;12071;50.850;4.446;2022-10-16T06:11:57;3.83;;;2.15;;
23782;SDS011;12071;50.850;4.446;2022-10-16T06:14:23;6.30;;;2.42;;
23782;SDS011;12071;50.850;4.446;2022-10-16T06:16:48;3.60;;;2.08;;
23782;SDS011;12071;50.850;4.446;2022-10-16T06:19:14;5.75;;;1.80;;
23782;SDS011;12071;50.850;4.446;2022-10-16T06:21:41;4.57;;;2.20;;
23782;SDS011;12071;50.850;4.446;2022-10-16T06:24:07;12.93;;;2.60;;
23782;SDS011;12071;50.850;4.446;2022-10-16T06:26:33;4.28;;;2.30;;
23782;SDS011;12071;50.850;4.446;2022-10-16T06:28:59;4.60;;;2.60;;
23782;SDS011;12071;50.850;4.446;2022-10-16T06:31:25;6.30;;;2.35;;
23782;SDS011;12071;50.850;4.446;2022-10-16T06:33:53;5.47;;;2.15;;
23782;SDS011;12071;50.850;4.446;2022-10-16T06:36:19;5.07;;;1.98;;
23782;SDS011;12071;50.850;4.446;2022-10-16T06:38:45;4.75;;;2.30;;
23782;SDS011;12071;50.850;4.446;2022-10-16T06:41:12;7.13;;;2.47;;
23782;SDS011;12071;50.850;4.446;2022-10-16T06:43:39;3.90;;;2.20;;
23782;SDS011;12071;50.850;4.446;2022-10-16T06:46:06;3.70;;;2.08;;
23782;SDS011;12071;50.850;4.446;2022-10-16T06:48:34;7.47;;;2.30;;
23782;SDS011;12071;50.850;4.446;2022-10-16T06:53:26;5.25;;;2.47;;
23782;SDS011;12071;50.850;4.446;2022-10-16T06:55:53;6.85;;;2.85;;
23782;SDS011;12071;50.850;4.446;2022-10-16T06:58:19;5.13;;;2.20;;
23782;SDS011;12071;50.850;4.446;2022-10-16T07:00:45;9.50;;;1.92;;
23782;SDS011;12071;50.850;4.446;2022-10-16T07:03:11;4.97;;;2.15;;
23782;SDS011;12071;50.850;4.446;2022-10-16T07:05:38;5.47;;;1.77;;
23782;SDS011;12071;50.850;4.446;2022-10-16T07:08:04;5.82;;;1.90;;
23782;SDS011;12071;50.850;4.446;2022-10-16T07:10:30;3.25;;;1.73;;
23782;SDS011;12071;50.850;4.446;2022-10-16T07:12:56;3.88;;;1.35;;
23782;SDS011;12071;50.850;4.446;2022-10-16T07:15:22;4.90;;;2.17;;
23782;SDS011;12071;50.850;4.446;2022-10-16T07:17:47;3.20;;;1.60;;
23782;SDS011;12071;50.850;4.446;2022-10-16T07:20:13;3.45;;;1.70;;
23782;SDS011;12071;50.850;4.446;2022-10-16T07:22:39;5.03;;;1.70;;
23782;SDS011;12071;50.850;4.446;2022-10-16T07:25:04;3.53;;;1.50;;
23782;SDS011;12071;50.850;4.446;2022-10-16T07:27:30;5.35;;;1.85;;
23782;SDS011;12071;50.850;4.446;2022-10-16T07:29:59;3.40;;;1.52;;
23782;SDS011;12071;50.850;4.446;2022-10-16T07:32:24;2.83;;;1.35;;
23782;SDS011;12071;50.850;4.446;2022-10-16T07:34:50;4.90;;;1.70;;
23782;SDS011;12071;50.850;4.446;2022-10-16T07:37:17;4.18;;;1.60;;
23782;SDS011;12071;50.850;4.446;2022-10-16T07:39:42;6.97;;;2.08;;
23782;SDS011;12071;50.850;4.446;2022-10-16T07:42:08;3.95;;;1.40;;
23782;SDS011;12071;50.850;4.446;2022-10-16T07:44:34;2.63;;;1.42;;
23782;SDS011;12071;50.850;4.446;2022-10-16T07:46:59;2.10;;;1.25;;
23782;SDS011;12071;50.850;4.446;2022-10-16T07:49:25;5.82;;;1.63;;
23782;SDS011;12071;50.850;4.446;2022-10-16T07:51:50;3.22;;;1.20;;
23782;SDS011;12071;50.850;4.446;2022-10-16T07:54:16;2.38;;;1.20;;
23782;SDS011;12071;50.850;4.446;2022-10-16T07:56:41;6.35;;;1.20;;
23782;SDS011;12071;50.850;4.446;2022-10-16T07:59:07;7.88;;;1.70;;
23782;SDS011;12071;50.850;4.446;2022-10-16T08:01:33;5.95;;;2.03;;
23782;SDS011;12071;50.850;4.446;2022-10-16T08:03:58;4.95;;;1.20;;
23782;SDS011;12071;50.850;4.446;2022-10-16T08:06:24;2.92;;;1.60;;
23782;SDS011;12071;50.850;4.446;2022-10-16T08:08:50;6.75;;;1.63;;
23782;SDS011;12071;50.850;4.446;2022-10-16T08:11:15;4.70;;;1.95;;
23782;SDS011;12071;50.850;4.446;2022-10-16T08:13:41;3.08;;;1.40;;
23782;SDS011;12071;50.850;4.446;2022-10-16T08:16:07;7.70;;;1.67;;
23782;SDS011;12071;50.850;4.446;2022-10-16T08:18:35;6.50;;;1.40;;
23782;SDS011;12071;50.850;4.446;2022-10-16T08:21:01;6.40;;;1.40;;
23782;SDS011;12071;50.850;4.446;2022-10-16T08:23:27;7.78;;;1.45;;
23782;SDS011;12071;50.850;4.446;2022-10-16T08:26:01;4.32;;;1.20;;
23782;SDS011;12071;50.850;4.446;2022-10-16T08:28:30;4.13;;;1.40;;
23782;SDS011;12071;50.850;4.446;2022-10-16T08:30:55;6.78;;;1.30;;
23782;SDS011;12071;50.850;4.446;2022-10-16T08:33:22;2.90;;;1.10;;
23782;SDS011;12071;50.850;4.446;2022-10-16T08:35:56;3.40;;;1.30;;
23782;SDS011;12071;50.850;4.446;2022-10-16T08:38:22;4.38;;;1.20;;
23782;SDS011;12071;50.850;4.446;2022-10-16T08:40:47;3.85;;;1.70;;
23782;SDS011;12071;50.850;4.446;2022-10-16T08:46:00;2.97;;;1.10;;
23782;SDS011;12071;50.850;4.446;2022-10-16T08:48:47;7.07;;;1.40;;
23782;SDS011;12071;50.850;4.446;2022-10-16T08:51:19;5.10;;;1.20;;
23782;SDS011;12071;50.850;4.446;2022-10-16T08:53:55;6.60;;;1.80;;
23782;SDS011;12071;50.850;4.446;2022-10-16T08:56:26;4.45;;;1.08;;
23782;SDS011;12071;50.850;4.446;2022-10-16T08:58:52;4.35;;;1.30;;
23782;SDS011;12071;50.850;4.446;2022-10-16T09:01:19;3.30;;;1.00;;
23782;SDS011;12071;50.850;4.446;2022-10-16T09:09:24;7.10;;;1.20;;
23782;SDS011;12071;50.850;4.446;2022-10-16T09:14:50;5.30;;;1.42;;
23782;SDS011;12071;50.850;4.446;2022-10-16T09:17:45;4.03;;;1.10;;
23782;SDS011;12071;50.850;4.446;2022-10-16T09:23:17;6.97;;;1.30;;
23782;SDS011;12071;50.850;4.446;2022-10-16T09:25:49;6.40;;;1.30;;
23782;SDS011;12071;50.850;4.446;2022-10-16T09:28:16;4.22;;;1.00;;
23782;SDS011;12071;50.850;4.446;2022-10-16T09:30:42;5.15;;;1.08;;
23782;SDS011;12071;50.850;4.446;2022-10-16T09:33:10;4.93;;;1.10;;
23782;SDS011;12071;50.850;4.446;2022-10-16T09:35:38;4.30;;;1.15;;
23782;SDS011;12071;50.850;4.446;2022-10-16T09:40:45;3.53;;;0.90;;
23782;SDS011;12071;50.850;4.446;2022-10-16T09:43:24;8.18;;;1.33;;
23782;SDS011;12071;50.850;4.446;2022-10-16T09:45:59;4.07;;;0.80;;
23782;SDS011;12071;50.850;4.446;2022-10-16T09:48:26;4.90;;;1.08;;
23782;SDS011;12071;50.850;4.446;2022-10-16T09:51:18;5.13;;;1.15;;
23782;SDS011;12071;50.850;4.446;2022-10-16T09:53:47;11.27;;;1.40;;
23782;SDS011;12071;50.850;4.446;2022-10-16T09:56:24;4.13;;;0.90;;
23782;SDS011;12071;50.850;4.446;2022-10-16T09:58:52;5.15;;;1.40;;
23782;SDS011;12071;50.850;4.446;2022-10-16T10:01:20;4.50;;;1.00;;
23782;SDS011;12071;50.850;4.446;2022-10-16T10:03:49;4.32;;;0.95;;
23782;SDS011;12071;50.850;4.446;2022-10-16T10:11:57;3.22;;;0.90;;
23782;SDS011;12071;50.850;4.446;2022-10-16T10:14:25;4.70;;;1.30;;
23782;SDS011;12071;50.850;4.446;2022-10-16T10:16:52;6.47;;;1.15;;
23782;SDS011;12071;50.850;4.446;2022-10-16T10:22:19;4.40;;;1.48;;
23782;SDS011;12071;50.850;4.446;2022-10-16T10:25:13;3.05;;;1.10;;
23782;SDS011;12071;50.850;4.446;2022-10-16T10:35:56;5.90;;;0.95;;
23782;SDS011;12071;50.850;4.446;2022-10-16T10:47:01;4.75;;;0.93;;
23782;SDS011;12071;50.850;4.446;2022-10-16T10:50:11;4.13;;;1.00;;
23782;SDS011;12071;50.850;4.446;2022-10-16T10:55:45;4.75;;;1.00;;
23782;SDS011;12071;50.850;4.446;2022-10-16T10:58:31;3.88;;;0.60;;
23782;SDS011;12071;50.850;4.446;2022-10-16T11:07:21;3.75;;;1.05;;
23782;SDS011;12071;50.850;4.446;2022-10-16T11:11:49;3.10;;;1.03;;
23782;SDS011;12071;50.850;4.446;2022-10-16T11:14:18;3.47;;;0.88;;
23782;SDS011;12071;50.850;4.446;2022-10-16T11:19:37;4.65;;;0.90;;
23782;SDS011;12071;50.850;4.446;2022-10-16T11:22:12;7.68;;;0.98;;
23782;SDS011;12071;50.850;4.446;2022-10-16T11:24:59;2.63;;;0.88;;
23782;SDS011;12071;50.850;4.446;2022-10-16T11:27:39;4.32;;;0.88;;
23782;SDS011;12071;50.850;4.446;2022-10-16T11:30:29;2.50;;;0.73;;
23782;SDS011;12071;50.850;4.446;2022-10-16T11:37:59;4.30;;;0.80;;
23782;SDS011;12071;50.850;4.446;2022-10-16T11:40:29;2.08;;;0.80;;
23782;SDS011;12071;50.850;4.446;2022-10-16T11:43:10;5.05;;;0.85;;
23782;SDS011;12071;50.850;4.446;2022-10-16T11:45:41;4.32;;;1.10;;
23782;SDS011;12071;50.850;4.446;2022-10-16T11:48:23;4.93;;;1.00;;
23782;SDS011;12071;50.850;4.446;2022-10-16T11:50:58;4.57;;;0.80;;
23782;SDS011;12071;50.850;4.446;2022-10-16T11:56:22;4.20;;;0.98;;
23782;SDS011;12071;50.850;4.446;2022-10-16T11:58:51;5.28;;;1.75;;
23782;SDS011;12071;50.850;4.446;2022-10-16T12:01:49;4.28;;;1.08;;
23782;SDS011;12071;50.850;4.446;2022-10-16T12:07:12;2.85;;;0.95;;
23782;SDS011;12071;50.850;4.446;2022-10-16T12:09:46;4.60;;;1.00;;
23782;SDS011;12071;50.850;4.446;2022-10-16T12:15:41;7.05;;;0.93;;
23782;SDS011;12071;50.850;4.446;2022-10-16T12:17:50;5.38;;;0.90;;
23782;SDS011;12071;50.850;4.446;2022-10-16T12:22:58;3.15;;;0.93;;
23782;SDS011;12071;50.850;4.446;2022-10-16T12:25:31;3.08;;;0.70;;
23782;SDS011;12071;50.850;4.446;2022-10-16T12:28:06;4.43;;;0.75;;
23782;SDS011;12071;50.850;4.446;2022-10-16T12:30:52;2.83;;;0.80;;
23782;SDS011;12071;50.850;4.446;2022-10-16T12:33:24;4.10;;;0.70;;
23782;SDS011;12071;50.850;4.446;2022-10-16T12:35:59;3.00;;;0.60;;
23782;SDS011;12071;50.850;4.446;2022-10-16T12:38:51;2.28;;;0.65;;
23782;SDS011;12071;50.850;4.446;2022-10-16T12:41:28;3.45;;;0.60;;
23782;SDS011;12071;50.850;4.446;2022-10-16T12:44:00;2.30;;;0.60;;
23782;SDS011;12071;50.850;4.446;2022-10-16T12:51:39;1.55;;;0.50;;
23782;SDS011;12071;50.850;4.446;2022-10-16T12:54:13;3.10;;;0.70;;
23782;SDS011;12071;50.850;4.446;2022-10-16T12:59:42;2.17;;;0.45;;
23782;SDS011;12071;50.850;4.446;2022-10-16T13:04:58;1.60;;;0.75;;
23782;SDS011;12071;50.850;4.446;2022-10-16T13:18:50;2.50;;;0.70;;
23782;SDS011;12071;50.850;4.446;2022-10-16T13:21:29;4.97;;;1.17;;
23782;SDS011;12071;50.850;4.446;2022-10-16T13:27:26;4.35;;;1.02;;
23782;SDS011;12071;50.850;4.446;2022-10-16T13:30:00;1.73;;;0.60;;
23782;SDS011;12071;50.850;4.446;2022-10-16T13:32:35;2.13;;;0.73;;
23782;SDS011;12071;50.850;4.446;2022-10-16T13:35:01;3.20;;;0.80;;
23782;SDS011;12071;50.850;4.446;2022-10-16T13:37:28;3.28;;;0.80;;
23782;SDS011;12071;50.850;4.446;2022-10-16T13:40:09;1.55;;;0.70;;
23782;SDS011;12071;50.850;4.446;2022-10-16T13:42:45;2.65;;;0.63;;
23782;SDS011;12071;50.850;4.446;2022-10-16T13:45:21;3.25;;;0.90;;
23782;SDS011;12071;50.850;4.446;2022-10-16T13:50:31;2.75;;;1.00;;
23782;SDS011;12071;50.850;4.446;2022-10-16T13:53:06;3.60;;;0.60;;
23782;SDS011;12071;50.850;4.446;2022-10-16T13:55:37;2.83;;;0.67;;
23782;SDS011;12071;50.850;4.446;2022-10-16T13:58:13;3.08;;;0.88;;
23782;SDS011;12071;50.850;4.446;2022-10-16T14:00:40;3.17;;;0.70;;
23782;SDS011;12071;50.850;4.446;2022-10-16T14:03:18;4.78;;;0.88;;
23782;SDS011;12071;50.850;4.446;2022-10-16T14:05:49;2.67;;;0.88;;
23782;SDS011;12071;50.850;4.446;2022-10-16T14:08:16;3.53;;;0.90;;
23782;SDS011;12071;50.850;4.446;2022-10-16T14:10:42;5.20;;;1.42;;
23782;SDS011;12071;50.850;4.446;2022-10-16T14:13:14;4.25;;;1.05;;
23782;SDS011;12071;50.850;4.446;2022-10-16T14:15:45;4.10;;;1.10;;
23782;SDS011;12071;50.850;4.446;2022-10-16T14:18:15;2.97;;;1.10;;
23782;SDS011;12071;50.850;4.446;2022-10-16T14:20:47;5.88;;;1.10;;
23782;SDS011;12071;50.850;4.446;2022-10-16T14:23:33;3.55;;;1.20;;
23782;SDS011;12071;50.850;4.446;2022-10-16T14:26:21;5.78;;;1.23;;
23782;SDS011;12071;50.850;4.446;2022-10-16T14:28:49;4.65;;;2.35;;
23782;SDS011;12071;50.850;4.446;2022-10-16T14:31:32;6.43;;;2.83;;
23782;SDS011;12071;50.850;4.446;2022-10-16T14:33:59;6.65;;;2.70;;
23782;SDS011;12071;50.850;4.446;2022-10-16T14:36:25;5.88;;;1.80;;
23782;SDS011;12071;50.850;4.446;2022-10-16T14:41:43;9.07;;;1.45;;
23782;SDS011;12071;50.850;4.446;2022-10-16T14:44:11;8.20;;;1.10;;
23782;SDS011;12071;50.850;4.446;2022-10-16T14:46:38;3.50;;;1.00;;
23782;SDS011;12071;50.850;4.446;2022-10-16T14:49:16;3.78;;;1.23;;
23782;SDS011;12071;50.850;4.446;2022-10-16T14:51:44;6.93;;;1.27;;
23782;SDS011;12071;50.850;4.446;2022-10-16T14:54:14;5.00;;;1.35;;
23782;SDS011;12071;50.850;4.446;2022-10-16T14:59:37;9.95;;;1.40;;
23782;SDS011;12071;50.850;4.446;2022-10-16T15:04:46;6.22;;;1.63;;
23782;SDS011;12071;50.850;4.446;2022-10-16T15:07:12;7.25;;;1.40;;
23782;SDS011;12071;50.850;4.446;2022-10-16T15:09:38;7.43;;;1.67;;
23782;SDS011;12071;50.850;4.446;2022-10-16T15:12:03;7.05;;;1.80;;
23782;SDS011;12071;50.850;4.446;2022-10-16T15:14:29;5.72;;;1.33;;
23782;SDS011;12071;50.850;4.446;2022-10-16T15:16:54;4.53;;;1.40;;
23782;SDS011;12071;50.850;4.446;2022-10-16T15:19:20;4.68;;;1.10;;
23782;SDS011;12071;50.850;4.446;2022-10-16T15:21:46;4.65;;;1.13;;
23782;SDS011;12071;50.850;4.446;2022-10-16T15:24:13;4.03;;;1.30;;
23782;SDS011;12071;50.850;4.446;2022-10-16T15:26:39;4.65;;;1.20;;
23782;SDS011;12071;50.850;4.446;2022-10-16T15:29:05;2.83;;;1.23;;
23782;SDS011;12071;50.850;4.446;2022-10-16T15:31:31;3.33;;;0.90;;
23782;SDS011;12071;50.850;4.446;2022-10-16T15:33:57;3.15;;;1.20;;
23782;SDS011;12071;50.850;4.446;2022-10-16T15:36:27;6.18;;;1.10;;
23782;SDS011;12071;50.850;4.446;2022-10-16T15:38:53;3.65;;;1.25;;
23782;SDS011;12071;50.850;4.446;2022-10-16T15:41:19;3.63;;;1.05;;
23782;SDS011;12071;50.850;4.446;2022-10-16T15:43:47;4.20;;;0.90;;
23782;SDS011;12071;50.850;4.446;2022-10-16T15:46:14;3.28;;;1.15;;
23782;SDS011;12071;50.850;4.446;2022-10-16T15:48:41;4.50;;;1.20;;
23782;SDS011;12071;50.850;4.446;2022-10-16T15:51:08;5.30;;;1.10;;
23782;SDS011;12071;50.850;4.446;2022-10-16T15:53:34;5.35;;;0.90;;
23782;SDS011;12071;50.850;4.446;2022-10-16T15:56:03;3.65;;;1.17;;
23782;SDS011;12071;50.850;4.446;2022-10-16T15:58:30;4.50;;;1.03;;
23782;SDS011;12071;50.850;4.446;2022-10-16T16:00:56;3.63;;;1.20;;
23782;SDS011;12071;50.850;4.446;2022-10-16T16:03:25;2.55;;;1.05;;
23782;SDS011;12071;50.850;4.446;2022-10-16T16:05:51;5.70;;;1.30;;
23782;SDS011;12071;50.850;4.446;2022-10-16T16:08:16;4.90;;;1.58;;
23782;SDS011;12071;50.850;4.446;2022-10-16T16:10:42;4.85;;;1.42;;
23782;SDS011;12071;50.850;4.446;2022-10-16T16:13:08;4.57;;;1.60;;
23782;SDS011;12071;50.850;4.446;2022-10-16T16:15:33;3.80;;;1.40;;
23782;SDS011;12071;50.850;4.446;2022-10-16T16:17:59;6.53;;;2.03;;
23782;SDS011;12071;50.850;4.446;2022-10-16T16:20:27;5.55;;;1.70;;
23782;SDS011;12071;50.850;4.446;2022-10-16T16:22:52;2.83;;;1.60;;
23782;SDS011;12071;50.850;4.446;2022-10-16T16:25:18;3.95;;;1.60;;
23782;SDS011;12071;50.850;4.446;2022-10-16T16:27:44;4.80;;;1.75;;
23782;SDS011;12071;50.850;4.446;2022-10-16T16:30:10;3.47;;;1.75;;
23782;SDS011;12071;50.850;4.446;2022-10-16T16:32:36;5.95;;;1.70;;
23782;SDS011;12071;50.850;4.446;2022-10-16T16:35:02;5.57;;;2.03;;
23782;SDS011;12071;50.850;4.446;2022-10-16T16:37:28;3.75;;;1.60;;
23782;SDS011;12071;50.850;4.446;2022-10-16T16:39:54;4.53;;;1.45;;
23782;SDS011;12071;50.850;4.446;2022-10-16T16:42:23;4.30;;;2.03;;
23782;SDS011;12071;50.850;4.446;2022-10-16T16:44:52;2.72;;;1.40;;
23782;SDS011;12071;50.850;4.446;2022-10-16T16:47:18;5.47;;;1.83;;
23782;SDS011;12071;50.850;4.446;2022-10-16T16:49:43;3.50;;;1.60;;
23782;SDS011;12071;50.850;4.446;2022-10-16T16:52:11;5.45;;;1.40;;
23782;SDS011;12071;50.850;4.446;2022-10-16T16:54:37;4.60;;;1.80;;
23782;SDS011;12071;50.850;4.446;2022-10-16T16:57:04;5.65;;;1.95;;
23782;SDS011;12071;50.850;4.446;2022-10-16T16:59:30;5.93;;;1.63;;
23782;SDS011;12071;50.850;4.446;2022-10-16T17:01:57;5.93;;;2.20;;
23782;SDS011;12071;50.850;4.446;2022-10-16T17:04:27;4.63;;;2.15;;
23782;SDS011;12071;50.850;4.446;2022-10-16T17:06:53;5.47;;;2.63;;
23782;SDS011;12071;50.850;4.446;2022-10-16T17:09:20;6.85;;;2.83;;
23782;SDS011;12071;50.850;4.446;2022-10-16T17:11:46;9.10;;;2.83;;
23782;SDS011;12071;50.850;4.446;2022-10-16T17:14:13;7.65;;;2.78;;
23782;SDS011;12071;50.850;4.446;2022-10-16T17:16:39;5.03;;;2.45;;
23782;SDS011;12071;50.850;4.446;2022-10-16T17:19:10;9.82;;;2.90;;